createdAt,value
2019-03-24T00:01:25.881Z,45.53
2019-03-24T00:03:55.404Z,47.00
2019-03-24T00:06:24.764Z,44.27
2019-03-24T00:08:54.187Z,43.30
2019-03-24T00:11:23.625Z,44.47
2019-03-24T00:13:52.972Z,45.60
2019-03-24T00:16:22.361Z,44.00
2019-03-24T00:18:51.720Z,46.60
2019-03-24T00:21:21.115Z,45.10
2019-03-24T00:23:50.489Z,47.13
2019-03-24T00:26:19.833Z,48.77
2019-03-24T00:28:49.192Z,46.97
2019-03-24T00:31:18.604Z,46.80
2019-03-24T00:33:47.953Z,46.20
2019-03-24T00:36:17.289Z,43.43
2019-03-24T00:38:46.706Z,42.90
2019-03-24T00:41:16.042Z,44.57
2019-03-24T00:43:45.368Z,46.23
2019-03-24T00:46:14.761Z,44.90
2019-03-24T00:48:44.158Z,42.40
2019-03-24T00:51:13.556Z,41.30
2019-03-24T00:53:42.954Z,38.17
2019-03-24T00:56:12.281Z,40.00
2019-03-24T00:58:41.733Z,39.13
2019-03-24T01:01:11.067Z,36.97
2019-03-24T01:03:40.463Z,34.97
2019-03-24T01:06:09.867Z,34.17
2019-03-24T01:08:39.287Z,29.60
2019-03-24T01:11:08.737Z,29.13
2019-03-24T01:13:38.168Z,27.30
2019-03-24T01:16:07.505Z,25.07
2019-03-24T01:18:36.928Z,21.90
2019-03-24T01:21:06.380Z,20.73
2019-03-24T01:23:59.149Z,19.33
2019-03-24T01:26:29.005Z,17.87
2019-03-24T01:29:17.786Z,16.57
2019-03-24T01:31:47.240Z,16.20
2019-03-24T01:34:16.713Z,14.70
2019-03-24T01:36:46.233Z,12.87
2019-03-24T01:39:15.588Z,15.20
2019-03-24T01:41:44.931Z,12.43
2019-03-24T01:44:14.349Z,13.23
2019-03-24T01:46:43.782Z,11.70
2019-03-24T01:49:13.203Z,14.00
2019-03-24T01:51:42.563Z,13.40
2019-03-24T01:54:12.016Z,10.87
2019-03-24T01:56:41.452Z,13.13
2019-03-24T01:59:10.823Z,12.47
2019-03-24T02:01:40.230Z,12.97
2019-03-24T02:04:09.617Z,12.87
2019-03-24T02:06:38.968Z,13.07
2019-03-24T02:09:09.422Z,12.07
2019-03-24T02:15:24.149Z,13.47
2019-03-24T02:17:53.591Z,12.33
2019-03-24T02:20:22.944Z,12.73
2019-03-24T02:22:52.362Z,11.60
2019-03-24T02:25:21.756Z,13.00
2019-03-24T02:27:51.196Z,12.77
2019-03-24T02:30:20.639Z,13.27
2019-03-24T02:32:50.076Z,13.00
2019-03-24T02:35:19.508Z,12.27
2019-03-24T02:37:48.846Z,13.07
2019-03-24T02:40:18.419Z,11.77
2019-03-24T02:42:47.805Z,14.07
2019-03-24T02:45:17.325Z,13.43
2019-03-24T02:47:46.742Z,12.30
2019-03-24T02:50:16.503Z,12.87
2019-03-24T02:52:45.983Z,13.00
2019-03-24T02:55:15.395Z,12.73
2019-03-24T02:57:44.745Z,13.80
2019-03-24T03:00:14.555Z,13.40
2019-03-24T03:02:44.094Z,12.53
2019-03-24T03:05:13.961Z,12.27
2019-03-24T03:07:43.315Z,12.50
2019-03-24T03:10:13.324Z,13.03
2019-03-24T03:12:42.693Z,12.33
2019-03-24T03:15:13.313Z,11.77
2019-03-24T03:17:42.706Z,12.27
2019-03-24T03:20:13.402Z,12.93
2019-03-24T03:22:42.747Z,12.17
2019-03-24T03:25:12.589Z,13.17
2019-03-24T03:27:42.049Z,10.07
2019-03-24T03:30:12.711Z,12.17
2019-03-24T03:32:42.217Z,11.30
2019-03-24T03:35:12.101Z,12.77
2019-03-24T03:37:41.496Z,12.30
2019-03-24T03:40:11.295Z,12.93
2019-03-24T03:42:40.953Z,12.63
2019-03-24T03:45:11.288Z,11.77
2019-03-24T03:47:40.725Z,11.33
2019-03-24T03:50:10.324Z,12.27
2019-03-24T03:52:39.717Z,12.27
2019-03-24T03:55:09.768Z,10.40
2019-03-24T03:57:58.065Z,11.57
2019-03-24T04:00:34.782Z,11.73
2019-03-24T04:03:05.576Z,11.53
2019-03-24T04:05:35.012Z,12.63
2019-03-24T04:08:04.652Z,11.37
2019-03-24T04:10:34.429Z,11.90
2019-03-24T04:13:03.857Z,10.10
2019-03-24T04:15:33.379Z,11.13
2019-03-24T04:18:02.814Z,12.70
2019-03-24T04:20:32.202Z,11.90
2019-03-24T04:23:01.642Z,11.83
2019-03-24T04:25:31.071Z,12.93
2019-03-24T04:28:00.448Z,11.57
2019-03-24T04:30:29.816Z,10.57
2019-03-24T04:32:59.157Z,12.03
2019-03-24T04:35:28.589Z,11.60
2019-03-24T04:37:58.008Z,10.90
2019-03-24T04:40:27.399Z,11.97
2019-03-24T04:42:56.825Z,11.07
2019-03-24T04:45:26.197Z,11.40
2019-03-24T04:47:55.505Z,12.53
2019-03-24T04:50:24.866Z,10.73
2019-03-24T04:52:54.280Z,11.67
2019-03-24T04:55:23.618Z,13.00
2019-03-24T04:57:52.988Z,11.47
2019-03-24T05:00:33.724Z,11.17
2019-03-24T05:03:03.161Z,11.47
2019-03-24T05:05:32.669Z,10.63
2019-03-24T05:08:02.641Z,11.23
2019-03-24T05:10:32.183Z,10.20
2019-03-24T05:13:01.539Z,11.67
2019-03-24T05:15:30.904Z,10.20
2019-03-24T05:18:00.354Z,10.80
2019-03-24T05:20:29.694Z,10.07
2019-03-24T05:22:59.100Z,8.33
2019-03-24T05:25:28.445Z,10.07
2019-03-24T05:27:57.813Z,11.23
2019-03-24T05:30:27.305Z,10.90
2019-03-24T05:32:56.635Z,10.93
2019-03-24T05:35:26.101Z,9.77
2019-03-24T05:37:55.495Z,8.60
2019-03-24T05:40:24.855Z,10.50
2019-03-24T05:42:54.220Z,9.80
2019-03-24T05:45:23.668Z,10.77
2019-03-24T05:47:53.119Z,11.00
2019-03-24T05:50:22.432Z,10.90
2019-03-24T05:52:51.776Z,8.83
2019-03-24T05:55:21.105Z,11.07
2019-03-24T05:57:50.487Z,10.20
2019-03-24T06:00:20.021Z,10.40
2019-03-24T06:02:49.376Z,10.67
2019-03-24T06:05:18.759Z,12.70
2019-03-24T06:07:48.175Z,11.60
2019-03-24T06:10:17.533Z,11.73
2019-03-24T06:12:46.904Z,12.03
2019-03-24T06:15:16.329Z,11.33
2019-03-24T06:18:04.810Z,11.80
2019-03-24T06:20:53.252Z,11.67
2019-03-24T06:23:41.613Z,11.87
2019-03-24T06:26:29.949Z,12.17
2019-03-24T06:29:18.306Z,11.23
2019-03-24T06:32:06.666Z,10.67
2019-03-24T06:34:55.057Z,12.03
2019-03-24T06:37:43.452Z,11.60
2019-03-24T06:40:31.994Z,12.17
2019-03-24T06:43:20.567Z,11.60
2019-03-24T06:46:09.144Z,12.00
2019-03-24T06:48:57.501Z,11.80
2019-03-24T06:51:45.930Z,12.20
2019-03-24T06:54:34.289Z,11.53
2019-03-24T06:57:22.682Z,11.20
2019-03-24T07:00:11.291Z,11.23
2019-03-24T07:02:59.742Z,10.43
2019-03-24T07:05:48.437Z,12.07
2019-03-24T07:08:36.734Z,12.07
2019-03-24T07:11:25.257Z,12.13
2019-03-24T07:14:13.842Z,12.97
2019-03-24T07:17:02.375Z,11.87
2019-03-24T07:19:50.700Z,11.13
2019-03-24T07:22:39.061Z,12.53
2019-03-24T07:25:27.432Z,11.73
2019-03-24T07:28:15.840Z,12.50
2019-03-24T07:31:04.216Z,11.97
2019-03-24T07:33:52.545Z,12.27
2019-03-24T07:36:41.087Z,12.03
2019-03-24T07:39:29.528Z,12.33
2019-03-24T07:42:17.897Z,12.97
2019-03-24T07:45:06.374Z,13.37
2019-03-24T07:47:54.733Z,12.03
2019-03-24T07:50:43.080Z,12.07
2019-03-24T07:53:31.515Z,13.77
2019-03-24T07:56:19.825Z,13.30
2019-03-24T07:59:08.211Z,12.90
2019-03-24T08:01:56.668Z,12.40
2019-03-24T08:04:37.186Z,14.03
2019-03-24T08:07:18.071Z,13.00
2019-03-24T08:09:58.766Z,12.83
2019-03-24T08:12:39.539Z,11.87
2019-03-24T08:15:20.177Z,11.50
2019-03-24T08:18:01.024Z,11.87
2019-03-24T08:20:41.993Z,11.80
2019-03-24T08:23:23.019Z,12.97
2019-03-24T08:26:04.304Z,13.60
2019-03-24T08:28:45.045Z,12.77
2019-03-24T08:31:25.942Z,12.13
2019-03-24T08:34:06.943Z,11.73
2019-03-24T08:36:47.833Z,10.90
2019-03-24T08:39:28.643Z,12.03
2019-03-24T08:42:09.160Z,11.93
2019-03-24T08:44:50.842Z,14.00
2019-03-24T08:47:31.891Z,13.17
2019-03-24T08:50:13.063Z,11.57
2019-03-24T08:52:52.571Z,11.47
2019-03-24T08:58:35.471Z,12.17
2019-03-24T09:01:23.820Z,12.77
2019-03-24T09:04:12.315Z,13.17
2019-03-24T09:09:37.806Z,12.00
2019-03-24T09:12:18.639Z,13.10
2019-03-24T09:14:59.969Z,11.40
2019-03-24T09:17:41.266Z,13.07
2019-03-24T09:20:29.537Z,12.00
2019-03-24T09:23:17.863Z,12.43
2019-03-24T09:26:06.199Z,12.33
2019-03-24T09:28:54.568Z,12.07
2019-03-24T09:31:43.183Z,11.80
2019-03-24T09:34:31.586Z,12.60
2019-03-24T09:37:19.993Z,12.40
2019-03-24T09:43:23.933Z,10.67
2019-03-24T09:46:12.264Z,12.33
2019-03-24T09:49:03.340Z,13.23
2019-03-24T09:51:50.716Z,12.90
2019-03-24T09:54:39.102Z,12.70
2019-03-24T09:57:27.453Z,12.43
2019-03-24T10:00:15.870Z,15.07
2019-03-24T10:03:04.316Z,12.83
2019-03-24T10:05:52.871Z,15.67
2019-03-24T10:08:34.195Z,13.00
2019-03-24T10:11:16.433Z,13.90
2019-03-24T10:13:57.534Z,13.80
2019-03-24T10:16:38.097Z,14.00
2019-03-24T10:19:19.058Z,14.23
2019-03-24T10:21:58.578Z,37.17
2019-03-24T10:24:47.035Z,34.63
2019-03-24T10:27:35.365Z,21.27
2019-03-24T10:30:23.794Z,15.17
2019-03-24T10:33:12.150Z,17.47
2019-03-24T10:36:00.584Z,15.67
2019-03-24T10:38:48.905Z,13.70
2019-03-24T10:41:37.450Z,14.67
2019-03-24T10:44:25.806Z,15.70
2019-03-24T10:47:14.112Z,17.37
2019-03-24T10:50:02.631Z,17.80
2019-03-24T10:52:51.016Z,16.47
2019-03-24T10:55:39.365Z,16.90
2019-03-24T10:58:27.896Z,15.63
2019-03-24T11:01:35.208Z,15.50
2019-03-24T11:04:23.539Z,14.47
2019-03-24T11:07:04.863Z,15.30
2019-03-24T11:09:46.014Z,14.20
2019-03-24T11:12:26.959Z,13.40
2019-03-24T11:15:08.445Z,14.33
2019-03-24T11:17:49.913Z,14.47
2019-03-24T11:20:31.129Z,13.13
2019-03-24T11:23:11.781Z,13.73
2019-03-24T11:25:52.568Z,13.80
2019-03-24T11:28:33.633Z,12.93
2019-03-24T11:31:14.412Z,12.83
2019-03-24T11:33:54.955Z,14.17
2019-03-24T11:36:35.808Z,13.43
2019-03-24T11:39:18.751Z,13.43
2019-03-24T11:42:00.001Z,15.60
2019-03-24T11:44:40.516Z,15.07
2019-03-24T11:47:26.446Z,14.30
2019-03-24T11:50:05.455Z,13.53
2019-03-24T11:52:46.049Z,13.60
2019-03-24T11:55:26.768Z,12.83
2019-03-24T11:58:07.468Z,14.20
2019-03-24T12:00:48.124Z,12.90
2019-03-24T12:03:28.876Z,13.20
2019-03-24T12:06:14.329Z,13.93
2019-03-24T12:08:56.151Z,13.23
2019-03-24T12:11:43.696Z,14.80
2019-03-24T12:14:24.730Z,15.10
2019-03-24T12:17:05.521Z,14.23
2019-03-24T12:19:56.296Z,16.73
2019-03-24T12:22:29.423Z,14.77
2019-03-24T12:25:11.341Z,13.80
2019-03-24T12:27:53.874Z,14.50
2019-03-24T12:30:42.313Z,13.97
2019-03-24T12:33:30.679Z,14.37
2019-03-24T12:36:19.126Z,13.70
2019-03-24T12:39:07.614Z,14.67
2019-03-24T12:41:56.005Z,14.83
2019-03-24T12:44:44.680Z,15.77
2019-03-24T12:47:33.224Z,14.53
2019-03-24T12:50:30.918Z,14.63
2019-03-24T12:53:12.159Z,15.33
2019-03-24T12:56:00.594Z,14.77
2019-03-24T12:58:48.986Z,14.70
2019-03-24T13:01:37.429Z,14.47
2019-03-24T13:04:25.948Z,12.67
2019-03-24T13:07:14.311Z,15.37
2019-03-24T13:10:02.654Z,14.83
2019-03-24T13:12:43.313Z,14.20
2019-03-24T13:15:24.274Z,14.53
2019-03-24T13:18:04.681Z,14.10
2019-03-24T13:20:45.493Z,16.43
2019-03-24T13:23:26.219Z,14.40
2019-03-24T13:26:07.401Z,25.37
2019-03-24T13:28:48.167Z,22.63
2019-03-24T13:31:29.152Z,15.10
2019-03-24T13:34:10.491Z,15.17
2019-03-24T13:39:33.586Z,22.83
2019-03-24T13:42:03.918Z,14.13
2019-03-24T13:44:33.583Z,14.00
2019-03-24T13:47:22.074Z,14.53
2019-03-24T13:50:10.626Z,13.57
2019-03-24T13:52:59.177Z,15.80
2019-03-24T13:55:47.584Z,15.83
2019-03-24T13:58:36.002Z,14.47
2019-03-24T14:01:24.489Z,13.53
2019-03-24T14:04:12.853Z,14.57
2019-03-24T14:07:02.074Z,14.50
2019-03-24T14:09:50.494Z,12.33
2019-03-24T14:15:44.081Z,16.43
2019-03-24T14:18:25.477Z,25.07
2019-03-24T14:21:05.995Z,12.67
2019-03-24T14:23:46.915Z,25.27
2019-03-24T14:26:27.313Z,12.73
2019-03-24T14:29:07.999Z,23.57
2019-03-24T14:31:49.312Z,19.67
2019-03-24T14:34:30.565Z,13.23
2019-03-24T14:37:11.864Z,11.73
2019-03-24T14:42:35.617Z,12.67
2019-03-24T14:45:15.996Z,12.30
2019-03-24T14:47:57.293Z,12.27
2019-03-24T14:50:38.247Z,12.53
2019-03-24T14:53:19.159Z,12.13
2019-03-24T14:56:00.562Z,14.43
2019-03-24T14:58:41.910Z,13.10
2019-03-24T15:01:23.104Z,13.17
2019-03-24T15:04:03.787Z,12.40
2019-03-24T15:06:45.181Z,11.40
2019-03-24T15:09:26.068Z,12.13
2019-03-24T15:12:06.612Z,12.40
2019-03-24T15:14:47.297Z,12.93
2019-03-24T15:17:28.102Z,12.47
2019-03-24T15:20:08.828Z,14.27
2019-03-24T15:22:49.398Z,13.23
2019-03-24T15:25:30.904Z,13.43
2019-03-24T15:28:11.520Z,15.60
2019-03-24T15:30:51.949Z,16.10
2019-03-24T15:33:32.747Z,15.53
2019-03-24T15:36:12.385Z,13.60
2019-03-24T15:39:00.822Z,13.00
2019-03-24T15:41:49.357Z,14.27
2019-03-24T15:44:37.694Z,12.37
2019-03-24T15:47:26.498Z,12.63
2019-03-24T15:50:15.022Z,10.80
2019-03-24T15:53:03.438Z,10.87
2019-03-24T15:55:51.907Z,11.10
2019-03-24T15:58:40.312Z,10.60
2019-03-24T16:01:28.667Z,9.50
2019-03-24T16:07:13.141Z,9.77
2019-03-24T16:10:01.500Z,10.07
2019-03-24T16:12:30.953Z,10.50
2019-03-24T16:17:54.309Z,10.47
2019-03-24T16:20:35.183Z,11.23
2019-03-24T16:23:16.325Z,9.60
2019-03-24T16:25:57.314Z,11.07
2019-03-24T16:28:38.413Z,10.83
2019-03-24T16:31:19.761Z,11.20
2019-03-24T16:34:01.007Z,10.10
2019-03-24T16:36:42.082Z,12.03
2019-03-24T16:39:23.024Z,18.23
2019-03-24T16:42:03.582Z,50.87
2019-03-24T16:44:45.296Z,24.20
2019-03-24T16:47:26.417Z,23.93
2019-03-24T16:50:07.076Z,27.90
2019-03-24T16:52:48.022Z,26.73
2019-03-24T16:55:30.464Z,24.67
2019-03-24T16:58:10.959Z,36.47
2019-03-24T17:00:51.839Z,35.90
2019-03-24T17:03:32.724Z,27.97
2019-03-24T17:06:13.542Z,28.57
2019-03-24T17:08:54.240Z,20.43
2019-03-24T17:11:35.634Z,19.70
2019-03-24T17:14:16.594Z,19.33
2019-03-24T17:16:57.761Z,34.17
2019-03-24T17:22:20.376Z,20.70
2019-03-24T17:25:01.151Z,20.90
2019-03-24T17:27:41.735Z,21.07
2019-03-24T17:30:22.474Z,23.23
2019-03-24T17:33:03.250Z,20.73
2019-03-24T17:35:44.218Z,19.80
2019-03-24T17:38:25.373Z,19.80
2019-03-24T17:41:06.676Z,19.77
2019-03-24T17:43:47.703Z,20.63
2019-03-24T17:46:28.398Z,19.43
2019-03-24T17:49:09.293Z,20.77
2019-03-24T17:52:00.409Z,19.70
2019-03-24T17:54:33.139Z,19.30
2019-03-24T17:57:14.183Z,19.30
2019-03-24T18:02:31.158Z,19.67
2019-03-24T18:05:19.897Z,25.60
2019-03-24T18:08:08.592Z,25.47
2019-03-24T18:10:57.452Z,17.53
2019-03-24T18:13:45.816Z,12.53
2019-03-24T18:16:27.548Z,11.93
2019-03-24T18:19:08.139Z,8.70
2019-03-24T18:21:50.190Z,8.23
2019-03-24T18:24:31.397Z,7.93
2019-03-24T18:27:14.653Z,7.30
2019-03-24T18:29:56.160Z,7.40
2019-03-24T18:35:23.640Z,7.13
2019-03-24T18:38:06.739Z,7.33
2019-03-24T18:40:48.142Z,6.67
2019-03-24T18:43:29.308Z,7.03
2019-03-24T18:45:59.634Z,7.13
2019-03-24T18:48:33.203Z,6.93
2019-03-24T18:51:22.710Z,7.10
2019-03-24T18:54:11.525Z,6.33
2019-03-24T18:57:00.016Z,7.53
2019-03-24T19:00:07.498Z,7.60
2019-03-24T19:02:55.922Z,7.47
2019-03-24T19:05:44.343Z,7.90
2019-03-24T19:08:32.703Z,6.53
2019-03-24T19:11:21.044Z,6.97
2019-03-24T19:14:25.388Z,6.73
2019-03-24T19:17:00.526Z,6.57
2019-03-24T19:19:49.630Z,6.27
2019-03-24T19:22:38.526Z,7.13
2019-03-24T19:25:26.910Z,7.67
2019-03-24T19:28:15.304Z,8.10
2019-03-24T19:30:45.059Z,6.60
2019-03-24T19:33:33.586Z,7.97
2019-03-24T19:36:22.124Z,10.70
2019-03-24T19:39:10.644Z,16.47
2019-03-24T19:41:40.345Z,10.17
2019-03-24T19:44:28.782Z,18.00
2019-03-24T19:47:17.327Z,20.77
2019-03-24T19:50:06.035Z,11.70
2019-03-24T19:52:54.579Z,9.33
2019-03-24T19:55:43.117Z,7.20
2019-03-24T19:58:31.447Z,8.10
2019-03-24T20:01:19.849Z,7.93
2019-03-24T20:04:08.189Z,7.83
2019-03-24T20:06:40.469Z,7.60
2019-03-24T20:09:09.981Z,8.10
2019-03-24T20:11:39.373Z,7.70
2019-03-24T20:14:08.801Z,7.43
2019-03-24T20:16:38.656Z,6.73
2019-03-24T20:19:07.994Z,8.07
2019-03-24T20:21:37.380Z,7.17
2019-03-24T20:24:06.815Z,7.53
2019-03-24T20:26:39.842Z,7.13
2019-03-24T20:29:09.248Z,7.60
2019-03-24T20:31:38.662Z,7.77
2019-03-24T20:34:08.022Z,7.40
2019-03-24T20:36:59.283Z,7.53
2019-03-24T20:39:28.734Z,7.97
2019-03-24T20:41:59.118Z,7.07
2019-03-24T20:44:28.606Z,7.33
2019-03-24T20:46:58.075Z,7.33
2019-03-24T20:49:27.624Z,7.83
2019-03-24T20:52:10.149Z,7.67
2019-03-24T20:54:40.154Z,7.67
2019-03-24T20:57:09.811Z,6.90
2019-03-24T20:59:45.451Z,7.93
2019-03-24T21:02:14.965Z,7.83
2019-03-24T21:04:44.328Z,7.67
2019-03-24T21:07:13.854Z,7.80
2019-03-24T21:09:43.198Z,7.03
2019-03-24T21:12:12.550Z,7.63
2019-03-24T21:14:42.063Z,8.07
2019-03-24T21:17:11.515Z,8.27
2019-03-24T21:19:40.957Z,6.97
2019-03-24T21:22:10.513Z,6.50
2019-03-24T21:24:40.004Z,6.33
2019-03-24T21:27:09.585Z,6.53
2019-03-24T21:29:39.218Z,6.70
2019-03-24T21:32:18.340Z,7.00
2019-03-24T21:34:47.713Z,7.40
2019-03-24T21:37:17.071Z,7.43
2019-03-24T21:39:46.659Z,7.40
2019-03-24T21:42:16.199Z,12.20
2019-03-24T21:44:46.086Z,14.30
2019-03-24T21:47:15.644Z,7.60
2019-03-24T21:49:45.023Z,8.00
2019-03-24T21:52:14.505Z,9.17
2019-03-24T21:54:45.821Z,12.83
2019-03-24T21:57:15.085Z,8.47
2019-03-24T22:00:14.770Z,7.87
2019-03-24T22:02:44.193Z,7.17
2019-03-24T22:05:24.124Z,10.37
2019-03-24T22:07:53.511Z,8.43
2019-03-24T22:10:22.848Z,9.57
2019-03-24T22:12:52.172Z,10.50
2019-03-24T22:15:21.525Z,8.83
2019-03-24T22:17:50.921Z,9.93
2019-03-24T22:20:20.429Z,8.70
2019-03-24T22:22:49.847Z,9.27
2019-03-24T22:25:19.178Z,10.27
2019-03-24T22:27:48.671Z,9.07
2019-03-24T22:30:18.494Z,9.73
2019-03-24T22:32:48.045Z,10.90
2019-03-24T22:35:17.694Z,9.73
2019-03-24T22:45:47.878Z,10.07
2019-03-24T22:48:17.300Z,10.93
2019-03-24T22:50:47.103Z,11.83
2019-03-24T22:53:16.533Z,8.87
2019-03-24T22:55:46.224Z,13.50
2019-03-24T22:58:15.700Z,7.93
2019-03-24T23:00:55.107Z,8.70
2019-03-24T23:03:25.293Z,6.57
2019-03-24T23:05:55.162Z,7.70
2019-03-24T23:08:24.569Z,8.10
2019-03-24T23:10:53.968Z,8.80
2019-03-24T23:13:23.318Z,7.30
2019-03-24T23:15:52.646Z,6.40
2019-03-24T23:18:22.013Z,6.23
2019-03-24T23:20:51.428Z,5.60
2019-03-24T23:23:20.760Z,6.33
2019-03-24T23:25:50.133Z,5.43
2019-03-24T23:28:19.533Z,6.33
2019-03-24T23:30:48.885Z,6.17
2019-03-24T23:33:18.245Z,6.00
2019-03-24T23:35:47.744Z,5.77
2019-03-24T23:38:17.076Z,6.17
2019-03-24T23:40:46.437Z,5.83
2019-03-24T23:43:15.877Z,6.10
2019-03-24T23:45:45.289Z,6.90
2019-03-24T23:48:14.691Z,6.00
2019-03-24T23:50:44.137Z,7.30
2019-03-24T23:53:15.128Z,7.60
2019-03-24T23:55:44.451Z,6.70
2019-03-24T23:58:13.791Z,7.30
